sensor_id;sensor_type;location;lat;lon;timestamp;P1;durP1;ratioP1;P2;durP2;ratioP2
62798;SDS011;48842;51.046;13.796;2023-07-02T00:01:01;2.27;;;1.83;;
62798;SDS011;48842;51.046;13.796;2023-07-02T00:03:26;1.90;;;1.57;;
62798;SDS011;48842;51.046;13.796;2023-07-02T00:05:52;1.67;;;1.57;;
62798;SDS011;48842;51.046;13.796;2023-07-02T00:08:19;1.80;;;1.70;;
62798;SDS011;48842;51.046;13.796;2023-07-02T00:10:44;3.37;;;1.70;;
62798;SDS011;48842;51.046;13.796;2023-07-02T00:13:10;2.03;;;1.60;;
62798;SDS011;48842;51.046;13.796;2023-07-02T00:15:35;1.80;;;1.70;;
62798;SDS011;48842;51.046;13.796;2023-07-02T00:18:00;3.97;;;2.40;;
62798;SDS011;48842;51.046;13.796;2023-07-02T00:20:25;2.30;;;2.10;;
62798;SDS011;48842;51.046;13.796;2023-07-02T00:22:51;2.07;;;1.97;;
62798;SDS011;48842;51.046;13.796;2023-07-02T00:25:16;1.83;;;1.73;;
62798;SDS011;48842;51.046;13.796;2023-07-02T00:27:41;4.17;;;2.13;;
62798;SDS011;48842;51.046;13.796;2023-07-02T00:30:07;1.80;;;1.70;;
62798;SDS011;48842;51.046;13.796;2023-07-02T00:32:33;1.60;;;1.50;;
62798;SDS011;48842;51.046;13.796;2023-07-02T00:34:58;1.80;;;1.70;;
62798;SDS011;48842;51.046;13.796;2023-07-02T00:37:24;1.73;;;1.63;;
62798;SDS011;48842;51.046;13.796;2023-07-02T00:39:49;1.77;;;1.67;;
62798;SDS011;48842;51.046;13.796;2023-07-02T00:42:14;1.87;;;1.70;;
62798;SDS011;48842;51.046;13.796;2023-07-02T00:44:39;2.67;;;1.63;;
62798;SDS011;48842;51.046;13.796;2023-07-02T00:47:06;2.53;;;1.73;;
62798;SDS011;48842;51.046;13.796;2023-07-02T00:49:32;1.50;;;1.40;;
62798;SDS011;48842;51.046;13.796;2023-07-02T00:51:58;1.43;;;1.30;;
62798;SDS011;48842;51.046;13.796;2023-07-02T00:54:23;1.50;;;1.40;;
62798;SDS011;48842;51.046;13.796;2023-07-02T00:56:48;2.60;;;1.40;;
62798;SDS011;48842;51.046;13.796;2023-07-02T00:59:15;2.20;;;1.30;;
62798;SDS011;48842;51.046;13.796;2023-07-02T01:01:40;3.03;;;1.67;;
62798;SDS011;48842;51.046;13.796;2023-07-02T01:04:06;1.73;;;1.60;;
62798;SDS011;48842;51.046;13.796;2023-07-02T01:06:33;2.97;;;1.20;;
62798;SDS011;48842;51.046;13.796;2023-07-02T01:09:01;1.43;;;1.37;;
62798;SDS011;48842;51.046;13.796;2023-07-02T01:11:34;1.37;;;1.27;;
62798;SDS011;48842;51.046;13.796;2023-07-02T01:14:11;2.20;;;1.40;;
62798;SDS011;48842;51.046;13.796;2023-07-02T01:16:39;1.87;;;1.77;;
62798;SDS011;48842;51.046;13.796;2023-07-02T01:19:10;1.10;;;1.10;;
62798;SDS011;48842;51.046;13.796;2023-07-02T01:21:38;3.73;;;1.30;;
62798;SDS011;48842;51.046;13.796;2023-07-02T01:24:04;1.60;;;1.17;;
62798;SDS011;48842;51.046;13.796;2023-07-02T01:26:31;2.03;;;1.50;;
62798;SDS011;48842;51.046;13.796;2023-07-02T01:29:20;1.40;;;1.30;;
62798;SDS011;48842;51.046;13.796;2023-07-02T01:31:45;1.60;;;1.50;;
62798;SDS011;48842;51.046;13.796;2023-07-02T01:34:12;1.60;;;1.50;;
62798;SDS011;48842;51.046;13.796;2023-07-02T01:36:38;1.47;;;1.30;;
62798;SDS011;48842;51.046;13.796;2023-07-02T01:39:04;1.30;;;1.20;;
62798;SDS011;48842;51.046;13.796;2023-07-02T01:41:31;1.70;;;1.60;;
62798;SDS011;48842;51.046;13.796;2023-07-02T01:44:02;1.90;;;1.80;;
62798;SDS011;48842;51.046;13.796;2023-07-02T01:46:27;1.60;;;1.50;;
62798;SDS011;48842;51.046;13.796;2023-07-02T01:48:53;1.33;;;1.23;;
62798;SDS011;48842;51.046;13.796;2023-07-02T01:51:18;4.50;;;1.67;;
62798;SDS011;48842;51.046;13.796;2023-07-02T01:53:43;1.37;;;1.20;;
62798;SDS011;48842;51.046;13.796;2023-07-02T01:56:09;1.37;;;1.27;;
62798;SDS011;48842;51.046;13.796;2023-07-02T01:58:34;1.40;;;1.30;;
62798;SDS011;48842;51.046;13.796;2023-07-02T02:00:59;1.87;;;1.30;;
62798;SDS011;48842;51.046;13.796;2023-07-02T02:03:24;1.67;;;1.57;;
62798;SDS011;48842;51.046;13.796;2023-07-02T02:05:50;1.67;;;1.57;;
62798;SDS011;48842;51.046;13.796;2023-07-02T02:08:15;1.27;;;1.17;;
62798;SDS011;48842;51.046;13.796;2023-07-02T02:10:40;2.73;;;1.80;;
62798;SDS011;48842;51.046;13.796;2023-07-02T02:13:05;1.73;;;1.43;;
62798;SDS011;48842;51.046;13.796;2023-07-02T02:15:32;2.23;;;1.20;;
62798;SDS011;48842;51.046;13.796;2023-07-02T02:17:57;1.70;;;1.60;;
62798;SDS011;48842;51.046;13.796;2023-07-02T02:20:22;1.80;;;1.70;;
62798;SDS011;48842;51.046;13.796;2023-07-02T02:22:48;1.50;;;1.40;;
62798;SDS011;48842;51.046;13.796;2023-07-02T02:25:13;1.17;;;1.17;;
62798;SDS011;48842;51.046;13.796;2023-07-02T02:27:38;1.47;;;1.37;;
62798;SDS011;48842;51.046;13.796;2023-07-02T02:30:04;1.30;;;1.30;;
62798;SDS011;48842;51.046;13.796;2023-07-02T02:32:31;1.43;;;1.33;;
62798;SDS011;48842;51.046;13.796;2023-07-02T02:34:57;1.43;;;1.33;;
62798;SDS011;48842;51.046;13.796;2023-07-02T02:37:22;2.03;;;1.70;;
62798;SDS011;48842;51.046;13.796;2023-07-02T02:39:48;2.80;;;1.43;;
62798;SDS011;48842;51.046;13.796;2023-07-02T02:42:14;3.23;;;1.30;;
62798;SDS011;48842;51.046;13.796;2023-07-02T02:44:39;1.43;;;1.33;;
62798;SDS011;48842;51.046;13.796;2023-07-02T02:47:04;4.07;;;1.10;;
62798;SDS011;48842;51.046;13.796;2023-07-02T02:49:30;4.80;;;1.80;;
62798;SDS011;48842;51.046;13.796;2023-07-02T02:51:55;1.30;;;1.30;;
62798;SDS011;48842;51.046;13.796;2023-07-02T02:54:20;2.03;;;1.70;;
62798;SDS011;48842;51.046;13.796;2023-07-02T02:56:46;1.80;;;1.67;;
62798;SDS011;48842;51.046;13.796;2023-07-02T02:59:12;2.77;;;1.50;;
62798;SDS011;48842;51.046;13.796;2023-07-02T03:01:37;1.50;;;1.40;;
62798;SDS011;48842;51.046;13.796;2023-07-02T03:04:02;1.73;;;1.63;;
62798;SDS011;48842;51.046;13.796;2023-07-02T03:06:27;1.50;;;1.40;;
62798;SDS011;48842;51.046;13.796;2023-07-02T03:08:53;1.63;;;1.53;;
62798;SDS011;48842;51.046;13.796;2023-07-02T03:11:18;1.80;;;1.70;;
62798;SDS011;48842;51.046;13.796;2023-07-02T03:13:43;3.97;;;1.50;;
62798;SDS011;48842;51.046;13.796;2023-07-02T03:16:08;1.53;;;1.47;;
62798;SDS011;48842;51.046;13.796;2023-07-02T03:18:34;1.83;;;1.73;;
62798;SDS011;48842;51.046;13.796;2023-07-02T03:21:00;1.63;;;1.40;;
62798;SDS011;48842;51.046;13.796;2023-07-02T03:23:25;1.57;;;1.47;;
62798;SDS011;48842;51.046;13.796;2023-07-02T03:25:50;3.00;;;1.30;;
62798;SDS011;48842;51.046;13.796;2023-07-02T03:28:15;3.97;;;1.70;;
62798;SDS011;48842;51.046;13.796;2023-07-02T03:30:40;1.70;;;1.20;;
62798;SDS011;48842;51.046;13.796;2023-07-02T03:33:07;2.43;;;1.50;;
62798;SDS011;48842;51.046;13.796;2023-07-02T03:35:33;4.30;;;1.40;;
62798;SDS011;48842;51.046;13.796;2023-07-02T03:37:59;1.30;;;1.20;;
62798;SDS011;48842;51.046;13.796;2023-07-02T03:40:24;1.73;;;1.63;;
62798;SDS011;48842;51.046;13.796;2023-07-02T03:42:49;1.60;;;1.60;;
62798;SDS011;48842;51.046;13.796;2023-07-02T03:45:14;1.30;;;1.30;;
62798;SDS011;48842;51.046;13.796;2023-07-02T03:47:40;1.40;;;1.30;;
62798;SDS011;48842;51.046;13.796;2023-07-02T03:50:05;5.30;;;2.50;;
62798;SDS011;48842;51.046;13.796;2023-07-02T03:52:30;1.37;;;1.27;;
62798;SDS011;48842;51.046;13.796;2023-07-02T03:54:56;2.67;;;2.13;;
62798;SDS011;48842;51.046;13.796;2023-07-02T03:57:21;2.03;;;1.33;;
62798;SDS011;48842;51.046;13.796;2023-07-02T03:59:46;1.30;;;1.30;;
62798;SDS011;48842;51.046;13.796;2023-07-02T04:02:11;1.77;;;1.60;;
62798;SDS011;48842;51.046;13.796;2023-07-02T04:04:37;1.77;;;1.67;;
62798;SDS011;48842;51.046;13.796;2023-07-02T04:07:02;1.90;;;1.80;;
62798;SDS011;48842;51.046;13.796;2023-07-02T04:09:27;1.40;;;1.30;;
62798;SDS011;48842;51.046;13.796;2023-07-02T04:11:52;1.60;;;1.50;;
62798;SDS011;48842;51.046;13.796;2023-07-02T04:14:18;3.20;;;1.60;;
62798;SDS011;48842;51.046;13.796;2023-07-02T04:16:43;3.20;;;2.13;;
62798;SDS011;48842;51.046;13.796;2023-07-02T04:19:10;1.97;;;1.70;;
62798;SDS011;48842;51.046;13.796;2023-07-02T04:21:35;4.23;;;1.50;;
62798;SDS011;48842;51.046;13.796;2023-07-02T04:24:00;2.27;;;1.60;;
62798;SDS011;48842;51.046;13.796;2023-07-02T04:26:26;2.60;;;1.87;;
62798;SDS011;48842;51.046;13.796;2023-07-02T04:28:51;1.80;;;1.70;;
62798;SDS011;48842;51.046;13.796;2023-07-02T04:31:17;3.83;;;1.60;;
62798;SDS011;48842;51.046;13.796;2023-07-02T04:33:44;2.07;;;1.90;;
62798;SDS011;48842;51.046;13.796;2023-07-02T04:36:09;2.50;;;1.40;;
62798;SDS011;48842;51.046;13.796;2023-07-02T04:38:34;2.20;;;2.00;;
62798;SDS011;48842;51.046;13.796;2023-07-02T04:40:59;4.03;;;2.27;;
62798;SDS011;48842;51.046;13.796;2023-07-02T04:43:30;2.17;;;2.07;;
62798;SDS011;48842;51.046;13.796;2023-07-02T04:45:56;2.60;;;2.40;;
62798;SDS011;48842;51.046;13.796;2023-07-02T04:48:22;2.43;;;2.23;;
62798;SDS011;48842;51.046;13.796;2023-07-02T04:50:47;2.30;;;2.10;;
62798;SDS011;48842;51.046;13.796;2023-07-02T04:53:13;2.50;;;2.30;;
62798;SDS011;48842;51.046;13.796;2023-07-02T04:55:38;2.30;;;2.20;;
62798;SDS011;48842;51.046;13.796;2023-07-02T04:58:03;2.73;;;2.20;;
62798;SDS011;48842;51.046;13.796;2023-07-02T05:00:28;3.37;;;3.10;;
62798;SDS011;48842;51.046;13.796;2023-07-02T05:02:54;2.50;;;2.40;;
62798;SDS011;48842;51.046;13.796;2023-07-02T05:05:19;2.97;;;2.77;;
62798;SDS011;48842;51.046;13.796;2023-07-02T05:07:44;2.50;;;2.40;;
62798;SDS011;48842;51.046;13.796;2023-07-02T05:10:09;2.57;;;2.43;;
62798;SDS011;48842;51.046;13.796;2023-07-02T05:12:35;2.50;;;2.40;;
62798;SDS011;48842;51.046;13.796;2023-07-02T05:15:00;8.70;;;2.60;;
62798;SDS011;48842;51.046;13.796;2023-07-02T05:17:25;2.93;;;2.57;;
62798;SDS011;48842;51.046;13.796;2023-07-02T05:19:51;3.33;;;2.73;;
62798;SDS011;48842;51.046;13.796;2023-07-02T05:22:16;2.53;;;2.43;;
62798;SDS011;48842;51.046;13.796;2023-07-02T05:24:42;3.67;;;2.70;;
62798;SDS011;48842;51.046;13.796;2023-07-02T05:27:08;3.33;;;3.00;;
62798;SDS011;48842;51.046;13.796;2023-07-02T05:29:34;4.13;;;2.90;;
62798;SDS011;48842;51.046;13.796;2023-07-02T05:31:59;5.83;;;2.80;;
62798;SDS011;48842;51.046;13.796;2023-07-02T05:34:25;4.07;;;2.50;;
62798;SDS011;48842;51.046;13.796;2023-07-02T05:36:50;8.30;;;2.67;;
62798;SDS011;48842;51.046;13.796;2023-07-02T05:39:15;3.53;;;2.80;;
62798;SDS011;48842;51.046;13.796;2023-07-02T05:41:41;5.77;;;3.07;;
62798;SDS011;48842;51.046;13.796;2023-07-02T05:44:06;2.90;;;2.70;;
62798;SDS011;48842;51.046;13.796;2023-07-02T05:46:31;3.50;;;3.17;;
62798;SDS011;48842;51.046;13.796;2023-07-02T05:48:56;4.93;;;2.30;;
62798;SDS011;48842;51.046;13.796;2023-07-02T05:51:22;2.40;;;2.17;;
62798;SDS011;48842;51.046;13.796;2023-07-02T05:53:48;3.07;;;2.63;;
62798;SDS011;48842;51.046;13.796;2023-07-02T05:56:14;3.57;;;3.23;;
62798;SDS011;48842;51.046;13.796;2023-07-02T05:58:39;2.70;;;2.60;;
62798;SDS011;48842;51.046;13.796;2023-07-02T06:01:05;3.07;;;2.87;;
62798;SDS011;48842;51.046;13.796;2023-07-02T06:03:31;2.70;;;2.50;;
62798;SDS011;48842;51.046;13.796;2023-07-02T06:05:56;4.80;;;2.70;;
62798;SDS011;48842;51.046;13.796;2023-07-02T06:08:21;6.93;;;3.07;;
62798;SDS011;48842;51.046;13.796;2023-07-02T06:10:47;2.43;;;2.33;;
62798;SDS011;48842;51.046;13.796;2023-07-02T06:13:12;2.20;;;2.10;;
62798;SDS011;48842;51.046;13.796;2023-07-02T06:15:38;2.73;;;2.20;;
62798;SDS011;48842;51.046;13.796;2023-07-02T06:18:03;5.57;;;2.37;;
62798;SDS011;48842;51.046;13.796;2023-07-02T06:20:29;3.23;;;2.40;;
62798;SDS011;48842;51.046;13.796;2023-07-02T06:22:54;2.03;;;1.93;;
62798;SDS011;48842;51.046;13.796;2023-07-02T06:25:19;2.63;;;2.20;;
62798;SDS011;48842;51.046;13.796;2023-07-02T06:27:44;2.43;;;2.23;;
62798;SDS011;48842;51.046;13.796;2023-07-02T06:30:10;2.43;;;2.33;;
62798;SDS011;48842;51.046;13.796;2023-07-02T06:32:35;2.30;;;2.10;;
62798;SDS011;48842;51.046;13.796;2023-07-02T06:35:00;2.67;;;2.47;;
62798;SDS011;48842;51.046;13.796;2023-07-02T06:37:25;4.30;;;2.50;;
62798;SDS011;48842;51.046;13.796;2023-07-02T06:39:51;2.57;;;2.47;;
62798;SDS011;48842;51.046;13.796;2023-07-02T06:42:16;2.63;;;2.53;;
62798;SDS011;48842;51.046;13.796;2023-07-02T06:44:41;3.07;;;2.87;;
62798;SDS011;48842;51.046;13.796;2023-07-02T06:47:07;3.10;;;2.80;;
62798;SDS011;48842;51.046;13.796;2023-07-02T06:49:32;3.83;;;2.90;;
62798;SDS011;48842;51.046;13.796;2023-07-02T06:51:57;2.67;;;2.47;;
62798;SDS011;48842;51.046;13.796;2023-07-02T06:54:25;2.70;;;2.50;;
62798;SDS011;48842;51.046;13.796;2023-07-02T06:56:50;6.20;;;3.10;;
62798;SDS011;48842;51.046;13.796;2023-07-02T06:59:22;2.77;;;2.57;;
62798;SDS011;48842;51.046;13.796;2023-07-02T07:01:47;2.80;;;2.30;;
62798;SDS011;48842;51.046;13.796;2023-07-02T07:04:14;3.60;;;2.87;;
62798;SDS011;48842;51.046;13.796;2023-07-02T07:06:39;2.47;;;2.37;;
62798;SDS011;48842;51.046;13.796;2023-07-02T07:09:04;2.23;;;2.13;;
62798;SDS011;48842;51.046;13.796;2023-07-02T07:11:29;2.80;;;2.70;;
62798;SDS011;48842;51.046;13.796;2023-07-02T07:13:55;2.80;;;2.60;;
62798;SDS011;48842;51.046;13.796;2023-07-02T07:16:20;3.40;;;3.20;;
62798;SDS011;48842;51.046;13.796;2023-07-02T07:18:45;3.07;;;2.70;;
62798;SDS011;48842;51.046;13.796;2023-07-02T07:21:11;3.90;;;2.70;;
62798;SDS011;48842;51.046;13.796;2023-07-02T07:23:36;2.87;;;2.67;;
62798;SDS011;48842;51.046;13.796;2023-07-02T07:26:01;5.10;;;2.30;;
62798;SDS011;48842;51.046;13.796;2023-07-02T07:28:26;2.93;;;2.73;;
62798;SDS011;48842;51.046;13.796;2023-07-02T07:30:52;3.50;;;3.17;;
62798;SDS011;48842;51.046;13.796;2023-07-02T07:33:17;2.90;;;2.70;;
62798;SDS011;48842;51.046;13.796;2023-07-02T07:35:42;3.13;;;2.93;;
62798;SDS011;48842;51.046;13.796;2023-07-02T07:38:07;3.87;;;2.93;;
62798;SDS011;48842;51.046;13.796;2023-07-02T07:40:33;6.80;;;3.03;;
62798;SDS011;48842;51.046;13.796;2023-07-02T07:42:58;3.10;;;2.90;;
62798;SDS011;48842;51.046;13.796;2023-07-02T07:45:23;3.67;;;3.37;;
62798;SDS011;48842;51.046;13.796;2023-07-02T07:47:49;3.47;;;3.20;;
62798;SDS011;48842;51.046;13.796;2023-07-02T07:50:14;6.03;;;3.73;;
62798;SDS011;48842;51.046;13.796;2023-07-02T07:52:39;3.40;;;3.10;;
62798;SDS011;48842;51.046;13.796;2023-07-02T07:55:06;4.97;;;3.97;;
62798;SDS011;48842;51.046;13.796;2023-07-02T07:57:34;3.83;;;3.20;;
62798;SDS011;48842;51.046;13.796;2023-07-02T08:00:00;3.33;;;3.13;;
62798;SDS011;48842;51.046;13.796;2023-07-02T08:02:26;3.70;;;3.07;;
62798;SDS011;48842;51.046;13.796;2023-07-02T08:04:51;5.60;;;2.93;;
62798;SDS011;48842;51.046;13.796;2023-07-02T08:07:16;3.57;;;2.60;;
62798;SDS011;48842;51.046;13.796;2023-07-02T08:09:42;2.83;;;2.50;;
62798;SDS011;48842;51.046;13.796;2023-07-02T08:12:07;2.47;;;2.37;;
62798;SDS011;48842;51.046;13.796;2023-07-02T08:14:33;3.10;;;2.90;;
62798;SDS011;48842;51.046;13.796;2023-07-02T08:17:00;4.53;;;2.93;;
62798;SDS011;48842;51.046;13.796;2023-07-02T08:19:25;2.60;;;2.50;;
62798;SDS011;48842;51.046;13.796;2023-07-02T08:21:50;3.63;;;2.90;;
62798;SDS011;48842;51.046;13.796;2023-07-02T08:24:16;4.33;;;2.63;;
62798;SDS011;48842;51.046;13.796;2023-07-02T08:26:41;2.50;;;2.40;;
62798;SDS011;48842;51.046;13.796;2023-07-02T08:29:06;4.00;;;2.20;;
62798;SDS011;48842;51.046;13.796;2023-07-02T08:31:31;5.70;;;2.33;;
62798;SDS011;48842;51.046;13.796;2023-07-02T08:33:57;2.70;;;2.10;;
62798;SDS011;48842;51.046;13.796;2023-07-02T08:36:22;3.00;;;2.20;;
62798;SDS011;48842;51.046;13.796;2023-07-02T08:38:47;2.57;;;2.37;;
62798;SDS011;48842;51.046;13.796;2023-07-02T08:41:12;3.83;;;2.70;;
62798;SDS011;48842;51.046;13.796;2023-07-02T08:43:38;2.63;;;2.47;;
62798;SDS011;48842;51.046;13.796;2023-07-02T08:46:04;2.57;;;2.33;;
62798;SDS011;48842;51.046;13.796;2023-07-02T08:48:29;5.37;;;2.00;;
62798;SDS011;48842;51.046;13.796;2023-07-02T08:50:55;2.57;;;2.37;;
62798;SDS011;48842;51.046;13.796;2023-07-02T08:53:20;2.30;;;2.20;;
62798;SDS011;48842;51.046;13.796;2023-07-02T08:55:50;2.77;;;2.57;;
62798;SDS011;48842;51.046;13.796;2023-07-02T08:58:15;2.43;;;2.20;;
62798;SDS011;48842;51.046;13.796;2023-07-02T09:00:52;3.30;;;2.57;;
62798;SDS011;48842;51.046;13.796;2023-07-02T09:03:37;1.93;;;1.83;;
62798;SDS011;48842;51.046;13.796;2023-07-02T09:06:04;3.20;;;2.07;;
62798;SDS011;48842;51.046;13.796;2023-07-02T09:08:30;2.90;;;2.07;;
62798;SDS011;48842;51.046;13.796;2023-07-02T09:11:11;2.43;;;2.33;;
62798;SDS011;48842;51.046;13.796;2023-07-02T09:13:47;7.20;;;1.97;;
62798;SDS011;48842;51.046;13.796;2023-07-02T09:16:33;6.07;;;1.90;;
62798;SDS011;48842;51.046;13.796;2023-07-02T09:19:02;2.30;;;2.13;;
62798;SDS011;48842;51.046;13.796;2023-07-02T09:21:38;3.20;;;2.17;;
62798;SDS011;48842;51.046;13.796;2023-07-02T09:24:17;2.23;;;2.00;;
62798;SDS011;48842;51.046;13.796;2023-07-02T09:26:48;1.90;;;1.67;;
62798;SDS011;48842;51.046;13.796;2023-07-02T09:29:22;1.77;;;1.67;;
62798;SDS011;48842;51.046;13.796;2023-07-02T09:31:49;1.90;;;1.80;;
62798;SDS011;48842;51.046;13.796;2023-07-02T09:34:14;2.10;;;1.97;;
62798;SDS011;48842;51.046;13.796;2023-07-02T09:36:40;1.90;;;1.80;;
62798;SDS011;48842;51.046;13.796;2023-07-02T09:39:18;3.67;;;1.80;;
62798;SDS011;48842;51.046;13.796;2023-07-02T09:41:44;3.10;;;1.80;;
62798;SDS011;48842;51.046;13.796;2023-07-02T09:44:14;2.53;;;2.00;;
62798;SDS011;48842;51.046;13.796;2023-07-02T09:46:41;2.67;;;1.90;;
62798;SDS011;48842;51.046;13.796;2023-07-02T09:49:11;2.37;;;1.73;;
62798;SDS011;48842;51.046;13.796;2023-07-02T09:51:39;1.60;;;1.50;;
62798;SDS011;48842;51.046;13.796;2023-07-02T09:54:06;1.80;;;1.70;;
62798;SDS011;48842;51.046;13.796;2023-07-02T09:56:32;2.00;;;1.90;;
62798;SDS011;48842;51.046;13.796;2023-07-02T09:58:57;2.60;;;2.20;;
62798;SDS011;48842;51.046;13.796;2023-07-02T10:01:22;2.33;;;1.90;;
62798;SDS011;48842;51.046;13.796;2023-07-02T10:03:48;1.90;;;1.80;;
62798;SDS011;48842;51.046;13.796;2023-07-02T10:06:13;1.90;;;1.80;;
62798;SDS011;48842;51.046;13.796;2023-07-02T10:08:38;2.27;;;2.07;;
62798;SDS011;48842;51.046;13.796;2023-07-02T10:11:13;2.37;;;2.17;;
62798;SDS011;48842;51.046;13.796;2023-07-02T10:13:38;1.90;;;1.80;;
62798;SDS011;48842;51.046;13.796;2023-07-02T10:16:05;1.80;;;1.70;;
62798;SDS011;48842;51.046;13.796;2023-07-02T10:18:31;3.27;;;1.70;;
62798;SDS011;48842;51.046;13.796;2023-07-02T10:20:56;1.87;;;1.77;;
62798;SDS011;48842;51.046;13.796;2023-07-02T10:23:34;1.73;;;1.63;;
62798;SDS011;48842;51.046;13.796;2023-07-02T10:26:09;5.33;;;2.27;;
62798;SDS011;48842;51.046;13.796;2023-07-02T10:28:36;2.17;;;2.07;;
62798;SDS011;48842;51.046;13.796;2023-07-02T10:31:01;2.40;;;2.20;;
62798;SDS011;48842;51.046;13.796;2023-07-02T10:33:26;2.83;;;1.47;;
62798;SDS011;48842;51.046;13.796;2023-07-02T10:35:51;1.90;;;1.80;;
62798;SDS011;48842;51.046;13.796;2023-07-02T10:40:53;6.10;;;1.97;;
62798;SDS011;48842;51.046;13.796;2023-07-02T10:43:26;3.67;;;1.97;;
62798;SDS011;48842;51.046;13.796;2023-07-02T10:45:57;1.80;;;1.70;;
62798;SDS011;48842;51.046;13.796;2023-07-02T10:48:24;3.87;;;1.90;;
62798;SDS011;48842;51.046;13.796;2023-07-02T10:50:50;1.80;;;1.70;;
62798;SDS011;48842;51.046;13.796;2023-07-02T10:53:16;1.80;;;1.70;;
62798;SDS011;48842;51.046;13.796;2023-07-02T10:55:42;4.23;;;1.97;;
62798;SDS011;48842;51.046;13.796;2023-07-02T10:58:08;2.20;;;2.00;;
62798;SDS011;48842;51.046;13.796;2023-07-02T11:00:44;1.90;;;1.80;;
62798;SDS011;48842;51.046;13.796;2023-07-02T11:03:22;1.60;;;1.50;;
62798;SDS011;48842;51.046;13.796;2023-07-02T11:05:50;1.77;;;1.67;;
62798;SDS011;48842;51.046;13.796;2023-07-02T11:08:17;1.93;;;1.83;;
62798;SDS011;48842;51.046;13.796;2023-07-02T11:10:43;3.27;;;1.73;;
62798;SDS011;48842;51.046;13.796;2023-07-02T11:13:12;2.03;;;1.90;;
62798;SDS011;48842;51.046;13.796;2023-07-02T11:15:41;2.03;;;1.57;;
62798;SDS011;48842;51.046;13.796;2023-07-02T11:18:10;1.80;;;1.70;;
62798;SDS011;48842;51.046;13.796;2023-07-02T11:20:36;5.40;;;2.13;;
62798;SDS011;48842;51.046;13.796;2023-07-02T11:23:02;2.10;;;1.80;;
62798;SDS011;48842;51.046;13.796;2023-07-02T11:25:27;1.80;;;1.67;;
62798;SDS011;48842;51.046;13.796;2023-07-02T11:28:01;7.77;;;2.10;;
62798;SDS011;48842;51.046;13.796;2023-07-02T11:30:28;1.83;;;1.60;;
62798;SDS011;48842;51.046;13.796;2023-07-02T11:32:53;4.80;;;1.87;;
62798;SDS011;48842;51.046;13.796;2023-07-02T11:35:19;3.27;;;1.50;;
62798;SDS011;48842;51.046;13.796;2023-07-02T11:37:45;2.90;;;2.20;;
62798;SDS011;48842;51.046;13.796;2023-07-02T11:40:13;1.93;;;1.63;;
62798;SDS011;48842;51.046;13.796;2023-07-02T11:42:39;1.77;;;1.67;;
62798;SDS011;48842;51.046;13.796;2023-07-02T11:45:04;1.80;;;1.70;;
62798;SDS011;48842;51.046;13.796;2023-07-02T11:47:30;1.90;;;1.80;;
62798;SDS011;48842;51.046;13.796;2023-07-02T11:49:55;2.43;;;1.40;;
62798;SDS011;48842;51.046;13.796;2023-07-02T11:52:20;1.70;;;1.60;;
62798;SDS011;48842;51.046;13.796;2023-07-02T11:54:47;3.03;;;1.70;;
62798;SDS011;48842;51.046;13.796;2023-07-02T11:57:13;1.93;;;1.83;;
62798;SDS011;48842;51.046;13.796;2023-07-02T11:59:38;2.60;;;1.77;;
62798;SDS011;48842;51.046;13.796;2023-07-02T12:02:03;1.90;;;1.80;;
62798;SDS011;48842;51.046;13.796;2023-07-02T12:04:29;2.20;;;1.93;;
62798;SDS011;48842;51.046;13.796;2023-07-02T12:06:54;2.23;;;1.90;;
62798;SDS011;48842;51.046;13.796;2023-07-02T12:09:19;2.00;;;1.67;;
62798;SDS011;48842;51.046;13.796;2023-07-02T12:11:45;2.57;;;1.83;;
62798;SDS011;48842;51.046;13.796;2023-07-02T12:14:10;1.83;;;1.73;;
62798;SDS011;48842;51.046;13.796;2023-07-02T12:16:36;4.83;;;1.60;;
62798;SDS011;48842;51.046;13.796;2023-07-02T12:19:01;3.67;;;2.10;;
62798;SDS011;48842;51.046;13.796;2023-07-02T12:21:27;3.67;;;1.90;;
62798;SDS011;48842;51.046;13.796;2023-07-02T12:23:52;2.43;;;2.20;;
62798;SDS011;48842;51.046;13.796;2023-07-02T12:26:18;15.17;;;2.20;;
62798;SDS011;48842;51.046;13.796;2023-07-02T12:28:43;2.33;;;2.13;;
62798;SDS011;48842;51.046;13.796;2023-07-02T12:31:09;2.03;;;1.90;;
62798;SDS011;48842;51.046;13.796;2023-07-02T12:33:35;6.40;;;2.80;;
62798;SDS011;48842;51.046;13.796;2023-07-02T12:36:00;3.83;;;2.47;;
62798;SDS011;48842;51.046;13.796;2023-07-02T12:38:25;3.03;;;2.83;;
62798;SDS011;48842;51.046;13.796;2023-07-02T12:40:50;2.70;;;2.30;;
62798;SDS011;48842;51.046;13.796;2023-07-02T12:43:16;3.70;;;2.23;;
62798;SDS011;48842;51.046;13.796;2023-07-02T12:45:41;9.50;;;2.37;;
62798;SDS011;48842;51.046;13.796;2023-07-02T12:48:06;6.50;;;2.87;;
62798;SDS011;48842;51.046;13.796;2023-07-02T12:50:31;2.87;;;2.20;;
62798;SDS011;48842;51.046;13.796;2023-07-02T12:52:56;2.77;;;2.57;;
62798;SDS011;48842;51.046;13.796;2023-07-02T12:55:22;3.53;;;2.07;;
62798;SDS011;48842;51.046;13.796;2023-07-02T12:57:47;4.00;;;2.13;;
62798;SDS011;48842;51.046;13.796;2023-07-02T13:00:12;3.23;;;2.43;;
62798;SDS011;48842;51.046;13.796;2023-07-02T13:02:38;2.97;;;2.67;;
62798;SDS011;48842;51.046;13.796;2023-07-02T13:05:03;2.40;;;2.17;;
62798;SDS011;48842;51.046;13.796;2023-07-02T13:07:28;3.10;;;2.33;;
62798;SDS011;48842;51.046;13.796;2023-07-02T13:09:55;4.07;;;2.20;;
62798;SDS011;48842;51.046;13.796;2023-07-02T13:12:21;5.53;;;2.40;;
62798;SDS011;48842;51.046;13.796;2023-07-02T13:14:46;10.00;;;2.33;;
62798;SDS011;48842;51.046;13.796;2023-07-02T13:17:11;5.13;;;2.30;;
62798;SDS011;48842;51.046;13.796;2023-07-02T13:19:36;3.73;;;2.33;;
62798;SDS011;48842;51.046;13.796;2023-07-02T13:22:02;4.60;;;2.90;;
62798;SDS011;48842;51.046;13.796;2023-07-02T13:24:28;2.70;;;2.50;;
62798;SDS011;48842;51.046;13.796;2023-07-02T13:26:59;4.57;;;2.97;;
62798;SDS011;48842;51.046;13.796;2023-07-02T13:29:26;8.30;;;3.27;;
62798;SDS011;48842;51.046;13.796;2023-07-02T13:31:51;3.47;;;2.83;;
62798;SDS011;48842;51.046;13.796;2023-07-02T13:34:16;8.23;;;3.50;;
62798;SDS011;48842;51.046;13.796;2023-07-02T13:36:41;5.07;;;3.27;;
62798;SDS011;48842;51.046;13.796;2023-07-02T13:39:07;5.30;;;3.30;;
62798;SDS011;48842;51.046;13.796;2023-07-02T13:41:32;4.60;;;3.27;;
62798;SDS011;48842;51.046;13.796;2023-07-02T13:43:58;6.53;;;3.20;;
62798;SDS011;48842;51.046;13.796;2023-07-02T13:46:23;6.60;;;3.07;;
62798;SDS011;48842;51.046;13.796;2023-07-02T13:48:49;3.13;;;2.93;;
62798;SDS011;48842;51.046;13.796;2023-07-02T13:51:14;7.17;;;3.90;;
62798;SDS011;48842;51.046;13.796;2023-07-02T13:53:39;9.27;;;3.43;;
62798;SDS011;48842;51.046;13.796;2023-07-02T13:56:04;5.93;;;2.97;;
62798;SDS011;48842;51.046;13.796;2023-07-02T13:58:46;5.80;;;3.17;;
62798;SDS011;48842;51.046;13.796;2023-07-02T14:01:12;5.90;;;3.13;;
62798;SDS011;48842;51.046;13.796;2023-07-02T14:03:38;3.30;;;2.80;;
62798;SDS011;48842;51.046;13.796;2023-07-02T14:06:03;3.50;;;3.20;;
62798;SDS011;48842;51.046;13.796;2023-07-02T14:08:28;3.40;;;3.10;;
62798;SDS011;48842;51.046;13.796;2023-07-02T14:10:53;7.17;;;3.20;;
62798;SDS011;48842;51.046;13.796;2023-07-02T14:13:19;4.23;;;2.60;;
62798;SDS011;48842;51.046;13.796;2023-07-02T14:15:44;3.80;;;3.13;;
62798;SDS011;48842;51.046;13.796;2023-07-02T14:18:09;3.50;;;2.90;;
62798;SDS011;48842;51.046;13.796;2023-07-02T14:20:35;4.50;;;3.00;;
62798;SDS011;48842;51.046;13.796;2023-07-02T14:23:00;3.97;;;3.57;;
62798;SDS011;48842;51.046;13.796;2023-07-02T14:25:25;5.60;;;3.50;;
62798;SDS011;48842;51.046;13.796;2023-07-02T14:27:50;4.97;;;3.33;;
62798;SDS011;48842;51.046;13.796;2023-07-02T14:30:15;5.60;;;3.60;;